FDMS/MTS METAR and TAF weather

Enter ICAO airport designator
Station Type Date Time Source
FDMS METAR 2019/04/15 13:00 UTC NOAA

FDMS 151300Z 01007KT 9999 TS SCT035 FEW045CB 28/18 Q1011 NOSIG


Station Type Date Time Source
FDMS Decoded METAR 2019/04/15 13:00 UTC NOAA

Manzini / Matsapa Airport, Swaziland (FDMS) 26-32S 031-18E
Apr 15, 2019 - 09:00 AM EDT / 2019.04.15 1300 UTC
Wind: from the N (010 degrees) at 8 MPH (7 KT):0
Visibility: greater than 7 mile(s):0
Sky conditions: partly cloudy
Weather: thunder; Cumulonimbus clouds observed
Temperature: 82 F (28 C)
Dew Point: 64 F (18 C)
Relative Humidity: 54%
Pressure (altimeter): 29.85 in. Hg (1011 hPa)
ob: FDMS 151300Z 01007KT 9999 TS SCT035 FEW045CB 28/18 Q1011 NOSIG
cycle: 13

Station Type Date Time Source
FDMS TAF 2019/03/27 09:00 UTC NOAA

TAF FDMS 270700Z 2709/2718 14005KT 9999 SCT020 BKN030
TEMPO 2710/2713 8000 -RA
BECMG 2714/2716 05007KT SCT035

Example: see airport list